createdAt,value
2018-06-19T00:01:50.088Z,18.96
2018-06-19T00:04:19.861Z,18.93
2018-06-19T00:06:49.628Z,18.91
2018-06-19T00:09:19.387Z,18.92
2018-06-19T00:11:49.116Z,18.91
2018-06-19T00:14:18.804Z,18.87
2018-06-19T00:16:48.772Z,18.84
2018-06-19T00:19:18.511Z,18.82
2018-06-19T00:21:54.328Z,18.79
2018-06-19T00:24:24.024Z,18.78
2018-06-19T00:26:53.784Z,18.75
2018-06-19T00:29:23.603Z,18.72
2018-06-19T00:31:53.360Z,18.74
2018-06-19T00:34:22.968Z,18.73
2018-06-19T00:36:52.656Z,18.71
2018-06-19T00:39:22.280Z,18.73
2018-06-19T00:41:51.940Z,18.66
2018-06-19T00:44:21.607Z,18.65
2018-06-19T00:46:52.708Z,18.59
2018-06-19T00:49:22.485Z,18.55
2018-06-19T00:51:52.122Z,18.54
2018-06-19T00:54:21.852Z,18.58
2018-06-19T00:56:56.230Z,18.52
2018-06-19T00:59:26.217Z,18.52
2018-06-19T01:01:57.200Z,18.46
2018-06-19T01:04:26.855Z,18.51
2018-06-19T01:06:56.501Z,18.44
2018-06-19T01:09:26.203Z,18.39
2018-06-19T01:11:55.832Z,18.30
2018-06-19T01:14:25.480Z,18.18
2018-06-19T01:16:55.155Z,18.17
2018-06-19T01:19:24.783Z,18.12
2018-06-19T01:21:54.444Z,18.09
2018-06-19T01:24:24.116Z,18.08
2018-06-19T01:26:53.777Z,18.00
2018-06-19T01:29:23.410Z,17.99
2018-06-19T01:31:53.110Z,17.96
2018-06-19T01:34:22.744Z,17.95
2018-06-19T01:36:52.454Z,18.00
2018-06-19T01:39:22.129Z,17.97
2018-06-19T01:41:51.788Z,17.92
2018-06-19T01:44:21.420Z,17.80
2018-06-19T01:46:51.132Z,17.70
2018-06-19T01:49:20.804Z,17.72
2018-06-19T01:51:50.446Z,17.68
2018-06-19T01:54:20.127Z,17.62
2018-06-19T01:56:49.776Z,17.68
2018-06-19T01:59:19.419Z,17.63
2018-06-19T02:01:49.094Z,17.58
2018-06-19T02:04:18.744Z,17.45
2018-06-19T02:06:48.388Z,17.29
2018-06-19T02:09:18.052Z,17.26
2018-06-19T02:11:47.718Z,17.24
2018-06-19T02:14:17.336Z,17.21
2018-06-19T02:16:47.015Z,17.22
2018-06-19T02:19:16.670Z,17.16
2018-06-19T02:21:46.314Z,17.08
2018-06-19T02:24:15.968Z,17.09
2018-06-19T02:26:45.660Z,17.07
2018-06-19T02:29:15.332Z,16.98
2018-06-19T02:31:44.988Z,16.99
2018-06-19T02:34:14.610Z,17.00
2018-06-19T02:36:44.312Z,16.99
2018-06-19T02:39:13.939Z,17.03
2018-06-19T02:41:43.576Z,17.02
2018-06-19T02:44:13.232Z,16.98
2018-06-19T02:46:42.844Z,16.90
2018-06-19T02:49:12.484Z,16.94
2018-06-19T02:51:42.158Z,16.77
2018-06-19T02:54:11.783Z,16.70
2018-06-19T02:56:41.440Z,16.63
2018-06-19T02:59:11.110Z,16.35
2018-06-19T03:01:40.744Z,16.17
2018-06-19T03:04:10.475Z,16.09
2018-06-19T03:06:40.152Z,16.17
2018-06-19T03:09:11.176Z,16.12
2018-06-19T03:11:40.896Z,16.08
2018-06-19T03:14:10.557Z,15.95
2018-06-19T03:16:40.228Z,16.00
2018-06-19T03:19:09.859Z,16.18
2018-06-19T03:21:39.476Z,16.09
2018-06-19T03:24:09.132Z,16.12
2018-06-19T03:26:38.887Z,16.11
2018-06-19T03:29:08.520Z,16.08
2018-06-19T03:31:38.203Z,16.21
2018-06-19T03:34:07.844Z,16.23
2018-06-19T03:36:37.496Z,16.26
2018-06-19T03:39:10.339Z,16.15
2018-06-19T03:41:40.006Z,16.16
2018-06-19T03:44:09.932Z,16.17
2018-06-19T03:46:39.591Z,16.21
2018-06-19T03:49:09.217Z,16.26
2018-06-19T03:51:38.827Z,16.33
2018-06-19T03:54:08.521Z,16.32
2018-06-19T03:56:38.141Z,16.36
2018-06-19T03:59:07.775Z,16.34
2018-06-19T04:01:37.432Z,16.51
2018-06-19T04:04:07.173Z,16.47
2018-06-19T04:06:36.808Z,16.48
2018-06-19T04:09:08.452Z,16.52
2018-06-19T04:11:38.527Z,16.57
2018-06-19T04:14:08.326Z,16.69
2018-06-19T04:16:37.967Z,16.84
2018-06-19T04:19:07.590Z,16.93
2018-06-19T04:21:37.283Z,17.02
2018-06-19T04:24:06.963Z,17.07
2018-06-19T04:26:36.592Z,17.06
2018-06-19T04:29:06.300Z,17.11
2018-06-19T04:31:35.936Z,17.02
2018-06-19T04:34:05.681Z,17.07
2018-06-19T04:36:35.360Z,17.10
2018-06-19T04:39:08.018Z,17.10
2018-06-19T04:41:37.667Z,17.17
2018-06-19T04:44:07.341Z,17.17
2018-06-19T04:46:37.231Z,17.24
2018-06-19T04:49:06.872Z,17.28
2018-06-19T04:51:36.471Z,17.34
2018-06-19T04:54:06.160Z,17.39
2018-06-19T04:56:35.796Z,17.38
2018-06-19T04:59:05.423Z,17.40
2018-06-19T05:01:35.095Z,17.41
2018-06-19T05:04:04.801Z,17.50
2018-06-19T05:06:34.473Z,17.49
2018-06-19T05:09:05.136Z,17.52
2018-06-19T05:11:34.772Z,17.61
2018-06-19T05:14:04.412Z,17.59
2018-06-19T05:16:34.108Z,17.62
2018-06-19T05:19:03.737Z,17.63
2018-06-19T05:21:33.384Z,17.61
2018-06-19T05:24:03.984Z,17.63
2018-06-19T05:26:33.616Z,17.82
2018-06-19T05:29:03.274Z,17.82
2018-06-19T05:31:32.949Z,17.83
2018-06-19T05:34:02.620Z,17.86
2018-06-19T05:36:32.328Z,17.85
2018-06-19T05:39:01.963Z,17.87
2018-06-19T05:41:31.603Z,17.90
2018-06-19T05:44:01.268Z,17.92
2018-06-19T05:46:30.929Z,17.93
2018-06-19T05:49:00.572Z,17.94
2018-06-19T05:51:30.276Z,17.92
2018-06-19T05:54:00.120Z,18.01
2018-06-19T05:56:29.779Z,17.95
2018-06-19T05:58:59.493Z,17.96
2018-06-19T06:01:29.244Z,17.91
2018-06-19T06:03:58.919Z,17.94
2018-06-19T06:06:28.598Z,17.96
2018-06-19T06:08:58.208Z,17.99
2018-06-19T06:11:27.815Z,18.07
2018-06-19T06:13:57.632Z,18.08
2018-06-19T06:16:27.369Z,18.18
2018-06-19T06:18:56.944Z,18.13
2018-06-19T06:21:26.628Z,18.23
2018-06-19T06:23:56.251Z,18.28
2018-06-19T06:26:25.966Z,18.24
2018-06-19T06:28:55.657Z,18.36
2018-06-19T06:31:25.310Z,18.34
2018-06-19T06:33:54.979Z,18.39
2018-06-19T06:36:24.851Z,18.44
2018-06-19T06:38:54.497Z,18.54
2018-06-19T06:41:24.166Z,18.51
2018-06-19T06:43:53.868Z,18.55
2018-06-19T06:46:23.493Z,18.76
2018-06-19T06:48:53.175Z,18.74
2018-06-19T06:51:22.819Z,18.77
2018-06-19T06:53:52.468Z,18.88
2018-06-19T06:56:22.201Z,18.92
2018-06-19T06:58:51.839Z,19.04
2018-06-19T07:01:21.477Z,19.22
2018-06-19T07:03:51.171Z,19.14
2018-06-19T07:06:20.797Z,19.10
2018-06-19T07:08:50.435Z,19.12
2018-06-19T07:11:20.100Z,19.17
2018-06-19T07:13:49.740Z,19.21
2018-06-19T07:16:19.451Z,19.32
2018-06-19T07:18:49.195Z,19.39
2018-06-19T07:21:18.788Z,19.29
2018-06-19T07:23:48.415Z,19.32
2018-06-19T07:26:18.126Z,19.29
2018-06-19T07:28:47.758Z,19.09
2018-06-19T07:31:17.400Z,19.06
2018-06-19T07:33:47.137Z,19.03
2018-06-19T07:36:16.765Z,19.04
2018-06-19T07:38:46.393Z,18.98
2018-06-19T07:41:16.065Z,19.08
2018-06-19T07:43:45.739Z,19.17
2018-06-19T07:46:15.392Z,19.38
2018-06-19T07:48:45.305Z,19.42
2018-06-19T07:51:14.967Z,19.55
2018-06-19T07:53:44.633Z,19.73
2018-06-19T07:56:14.335Z,19.91
2018-06-19T07:58:43.957Z,19.87
2018-06-19T08:01:13.564Z,19.90
2018-06-19T08:03:43.225Z,19.88
2018-06-19T08:06:12.850Z,19.84
2018-06-19T08:08:42.547Z,19.95
2018-06-19T08:11:12.240Z,20.02
2018-06-19T08:13:41.864Z,20.26
2018-06-19T08:16:11.476Z,20.44
2018-06-19T08:18:41.155Z,20.73
2018-06-19T08:21:11.720Z,20.88
2018-06-19T08:23:41.672Z,20.83
2018-06-19T08:26:11.307Z,20.86
2018-06-19T08:28:40.923Z,20.83
2018-06-19T08:31:10.600Z,20.81
2018-06-19T08:33:40.248Z,20.84
2018-06-19T08:36:09.892Z,20.63
2018-06-19T08:38:39.587Z,20.68
2018-06-19T08:41:09.242Z,20.78
2018-06-19T08:43:38.992Z,20.79
2018-06-19T08:46:08.651Z,20.77
2018-06-19T08:48:38.272Z,20.83
2018-06-19T08:51:07.893Z,21.00
2018-06-19T08:53:37.572Z,21.07
2018-06-19T08:56:07.345Z,21.09
2018-06-19T08:58:36.963Z,21.02
2018-06-19T09:01:06.740Z,20.99
2018-06-19T09:03:36.376Z,21.07
2018-06-19T09:06:06.163Z,21.09
2018-06-19T09:08:35.818Z,21.00
2018-06-19T09:11:05.492Z,20.96
2018-06-19T09:13:35.210Z,20.94
2018-06-19T09:16:04.969Z,20.99
2018-06-19T09:18:35.245Z,20.85
2018-06-19T09:21:05.326Z,20.74
2018-06-19T09:23:34.982Z,20.73
2018-06-19T09:26:04.669Z,20.59
2018-06-19T09:28:34.299Z,20.56
2018-06-19T09:31:03.995Z,20.62
2018-06-19T09:33:33.721Z,20.60
2018-06-19T09:36:03.393Z,20.65
2018-06-19T09:38:33.060Z,20.72
2018-06-19T09:41:02.752Z,20.74
2018-06-19T09:43:32.415Z,20.85
2018-06-19T09:46:02.151Z,21.02
2018-06-19T09:48:31.791Z,21.18
2018-06-19T09:51:01.466Z,21.16
2018-06-19T09:53:31.556Z,21.30
2018-06-19T09:56:01.766Z,21.51
2018-06-19T09:58:31.548Z,21.53
2018-06-19T10:01:03.356Z,21.68
2018-06-19T10:03:33.642Z,21.81
2018-06-19T10:06:03.327Z,21.86
2018-06-19T10:08:32.988Z,21.96
2018-06-19T10:11:02.689Z,22.02
2018-06-19T10:13:32.312Z,21.97
2018-06-19T10:16:01.948Z,22.08
2018-06-19T10:18:31.676Z,22.06
2018-06-19T10:21:01.324Z,22.19
2018-06-19T10:23:30.948Z,22.34
2018-06-19T10:26:00.671Z,22.42
2018-06-19T10:28:30.330Z,22.55
2018-06-19T10:30:59.961Z,22.71
2018-06-19T10:33:29.632Z,22.51
2018-06-19T10:35:59.247Z,22.75
2018-06-19T10:38:28.848Z,22.86
2018-06-19T10:40:58.555Z,22.79
2018-06-19T10:43:28.200Z,22.73
2018-06-19T10:45:57.892Z,22.69
2018-06-19T10:48:27.567Z,22.72
2018-06-19T10:50:57.172Z,22.72
2018-06-19T10:53:26.785Z,22.77
2018-06-19T10:55:56.457Z,22.85
2018-06-19T10:58:26.081Z,22.71
2018-06-19T11:00:55.729Z,22.70
2018-06-19T11:03:25.428Z,22.73
2018-06-19T11:05:55.066Z,22.74
2018-06-19T11:08:24.755Z,22.91
2018-06-19T11:10:54.363Z,22.86
2018-06-19T11:13:23.993Z,22.82
2018-06-19T11:15:53.569Z,22.95
2018-06-19T11:18:23.249Z,22.92
2018-06-19T11:20:52.882Z,22.82
2018-06-19T11:23:22.501Z,22.73
2018-06-19T11:25:52.155Z,22.67
2018-06-19T11:28:21.778Z,22.72
2018-06-19T11:30:51.396Z,22.53
2018-06-19T11:33:21.039Z,22.46
2018-06-19T11:35:50.724Z,22.24
2018-06-19T11:38:20.367Z,22.41
2018-06-19T11:40:50.078Z,22.41
2018-06-19T11:43:19.759Z,22.21
2018-06-19T11:45:49.428Z,22.30
2018-06-19T11:48:19.112Z,21.94
2018-06-19T11:50:48.733Z,21.75
2018-06-19T11:53:18.360Z,21.89
2018-06-19T11:55:48.057Z,21.88
2018-06-19T11:58:17.700Z,21.85
2018-06-19T12:00:47.433Z,21.78
2018-06-19T12:03:17.176Z,21.81
2018-06-19T12:05:46.881Z,21.70
2018-06-19T12:08:16.532Z,21.61
2018-06-19T12:10:46.937Z,21.67
2018-06-19T12:13:16.556Z,21.88
2018-06-19T12:15:46.296Z,22.07
2018-06-19T12:18:16.049Z,22.38
2018-06-19T12:20:45.709Z,22.63
2018-06-19T12:23:15.436Z,22.77
2018-06-19T12:25:45.085Z,22.69
2018-06-19T12:28:14.812Z,22.76
2018-06-19T12:30:44.482Z,22.63
2018-06-19T12:33:14.099Z,22.48
2018-06-19T12:35:43.725Z,22.55
2018-06-19T12:38:13.416Z,22.60
2018-06-19T12:40:43.056Z,22.51
2018-06-19T12:43:12.730Z,22.58
2018-06-19T12:45:42.441Z,22.60
2018-06-19T12:48:12.073Z,22.47
2018-06-19T12:51:58.969Z,22.47
2018-06-19T12:56:42.355Z,22.68
2018-06-19T12:59:12.081Z,22.87
2018-06-19T13:01:41.724Z,22.87
2018-06-19T13:04:22.456Z,22.80
2018-06-19T13:06:52.075Z,22.58
2018-06-19T13:09:21.721Z,22.70
2018-06-19T13:11:51.404Z,22.77
2018-06-19T13:14:32.049Z,22.99
2018-06-19T13:17:12.596Z,23.28
2018-06-19T13:19:53.304Z,23.53
2018-06-19T13:22:22.976Z,23.63
2018-06-19T13:24:52.648Z,23.71
2018-06-19T13:27:22.333Z,23.71
2018-06-19T13:30:09.349Z,23.67
2018-06-19T13:32:39.593Z,23.80
2018-06-19T13:35:09.269Z,23.79
2018-06-19T13:37:38.881Z,23.65
2018-06-19T13:42:19.825Z,23.55
2018-06-19T13:45:05.460Z,23.38
2018-06-19T13:47:35.145Z,23.37
2018-06-19T13:50:04.851Z,23.47
2018-06-19T13:52:34.488Z,23.54
2018-06-19T13:55:31.120Z,23.48
2018-06-19T13:58:11.823Z,23.63
2018-06-19T14:00:41.488Z,23.67
2018-06-19T14:03:11.125Z,23.45
2018-06-19T14:05:40.751Z,23.45
2018-06-19T14:08:17.320Z,23.33
2018-06-19T14:10:58.076Z,23.23
2018-06-19T14:13:27.783Z,23.16
2018-06-19T14:15:57.438Z,23.14
2018-06-19T14:18:27.108Z,23.24
2018-06-19T14:20:56.725Z,23.22
2018-06-19T14:23:26.352Z,23.35
2018-06-19T14:25:56.036Z,23.32
2018-06-19T14:28:25.653Z,23.33
2018-06-19T14:30:55.359Z,23.39
2018-06-19T14:33:24.977Z,23.50
2018-06-19T14:35:54.620Z,23.59
2018-06-19T14:38:24.292Z,23.74
2018-06-19T14:40:53.904Z,23.85
2018-06-19T14:43:23.557Z,23.92
2018-06-19T14:45:53.397Z,23.77
2018-06-19T14:48:23.057Z,23.76
2018-06-19T14:50:52.655Z,23.72
2018-06-19T14:53:22.315Z,23.53
2018-06-19T14:55:51.927Z,23.58
2018-06-19T14:58:21.556Z,23.57
2018-06-19T15:00:51.224Z,23.46
2018-06-19T15:03:20.856Z,23.40
2018-06-19T15:05:50.478Z,23.31
2018-06-19T15:08:20.134Z,23.15
2018-06-19T15:10:49.764Z,23.06
2018-06-19T15:13:19.388Z,22.96
2018-06-19T15:15:49.060Z,23.09
2018-06-19T15:18:18.813Z,23.22
2018-06-19T15:20:48.455Z,23.09
2018-06-19T15:23:18.139Z,22.94
2018-06-19T15:25:47.770Z,22.92
2018-06-19T15:28:17.389Z,22.94
2018-06-19T15:30:47.072Z,23.00
2018-06-19T15:33:16.704Z,22.99
2018-06-19T15:35:46.324Z,23.05
2018-06-19T15:38:15.999Z,23.03
2018-06-19T15:40:46.096Z,22.90
2018-06-19T15:43:15.758Z,22.93
2018-06-19T15:45:45.388Z,22.99
2018-06-19T15:48:15.148Z,22.93
2018-06-19T15:50:44.775Z,22.98
2018-06-19T15:53:14.416Z,22.91
2018-06-19T15:55:44.079Z,22.89
2018-06-19T15:58:13.735Z,22.83
2018-06-19T16:00:43.364Z,22.81
2018-06-19T16:03:13.040Z,22.99
2018-06-19T16:05:42.675Z,23.07
2018-06-19T16:08:17.193Z,23.19
2018-06-19T16:10:48.088Z,23.18
2018-06-19T16:13:17.768Z,23.35
2018-06-19T16:15:47.401Z,23.28
2018-06-19T16:18:17.156Z,23.23
2018-06-19T16:20:46.780Z,23.21
2018-06-19T16:23:16.408Z,23.14
2018-06-19T16:25:46.060Z,23.10
2018-06-19T16:28:15.701Z,23.13
2018-06-19T16:30:45.344Z,23.08
2018-06-19T16:33:15.032Z,23.10
2018-06-19T16:35:44.800Z,23.11
2018-06-19T16:38:14.509Z,23.08
2018-06-19T16:40:44.120Z,23.07
2018-06-19T16:43:13.767Z,23.07
2018-06-19T16:45:43.418Z,23.00
2018-06-19T16:48:13.419Z,23.04
2018-06-19T16:50:43.040Z,22.99
2018-06-19T16:53:12.672Z,22.86
2018-06-19T16:55:42.482Z,22.81
2018-06-19T16:58:12.096Z,22.91
2018-06-19T17:00:41.725Z,22.88
2018-06-19T17:03:11.444Z,22.85
2018-06-19T17:05:41.074Z,22.86
2018-06-19T17:08:10.732Z,22.78
2018-06-19T17:10:40.403Z,22.77
2018-06-19T17:13:10.042Z,22.73
2018-06-19T17:15:39.682Z,22.71
2018-06-19T17:18:09.352Z,22.65
2018-06-19T17:20:38.977Z,22.68
2018-06-19T17:23:08.599Z,22.61
2018-06-19T17:25:38.269Z,22.56
2018-06-19T17:28:07.918Z,22.63
2018-06-19T17:30:37.593Z,22.52
2018-06-19T17:33:07.545Z,22.58
2018-06-19T17:35:37.177Z,22.52
2018-06-19T17:38:06.821Z,22.51
2018-06-19T17:40:36.514Z,22.47
2018-06-19T17:43:06.396Z,22.48
2018-06-19T17:45:36.067Z,22.44
2018-06-19T17:48:05.726Z,22.41
2018-06-19T17:50:35.372Z,22.40
2018-06-19T17:53:05.045Z,22.33
2018-06-19T17:55:34.672Z,22.34
2018-06-19T17:58:04.349Z,22.27
2018-06-19T18:00:33.995Z,22.16
2018-06-19T18:03:03.628Z,22.19
2018-06-19T18:05:33.312Z,22.07
2018-06-19T18:08:03.000Z,22.13
2018-06-19T18:10:32.854Z,22.08
2018-06-19T18:13:02.516Z,22.03
2018-06-19T18:15:32.206Z,22.06
2018-06-19T18:18:01.827Z,21.98
2018-06-19T18:20:31.493Z,22.04
2018-06-19T18:23:01.203Z,22.01
2018-06-19T18:25:30.815Z,21.97
2018-06-19T18:28:00.485Z,21.97
2018-06-19T18:30:30.104Z,21.95
2018-06-19T18:32:59.739Z,21.97
2018-06-19T18:35:29.394Z,21.92
2018-06-19T18:37:59.040Z,21.94
2018-06-19T18:40:28.652Z,21.82
2018-06-19T18:42:58.339Z,21.85
2018-06-19T18:45:27.976Z,21.90
2018-06-19T18:47:57.603Z,21.76
2018-06-19T18:50:27.323Z,21.72
2018-06-19T18:52:56.971Z,21.71
2018-06-19T18:55:26.628Z,21.61
2018-06-19T18:57:56.304Z,21.58
2018-06-19T19:00:25.960Z,21.56
2018-06-19T19:02:55.641Z,21.54
2018-06-19T19:05:25.364Z,21.57
2018-06-19T19:07:55.020Z,21.55
2018-06-19T19:10:29.947Z,21.56
2018-06-19T19:12:59.624Z,21.55
2018-06-19T19:15:34.452Z,21.46
2018-06-19T19:18:09.323Z,21.38
2018-06-19T19:20:38.987Z,21.35
2018-06-19T19:23:08.621Z,21.33
2018-06-19T19:25:38.308Z,21.27
2018-06-19T19:28:12.988Z,21.28
2018-06-19T19:30:42.675Z,21.23
2018-06-19T19:33:12.330Z,21.24
2018-06-19T19:35:41.976Z,21.22
2018-06-19T19:38:16.992Z,21.22
2018-06-19T19:40:46.692Z,21.27
2018-06-19T19:43:16.396Z,21.33
2018-06-19T19:45:46.043Z,21.30
2018-06-19T19:48:20.936Z,21.30
2018-06-19T19:50:50.776Z,21.23
2018-06-19T19:53:20.610Z,21.20
2018-06-19T19:55:55.364Z,21.22
2018-06-19T19:58:30.369Z,21.31
2018-06-19T20:01:00.074Z,21.27
2018-06-19T20:03:29.740Z,21.08
2018-06-19T20:05:59.438Z,21.08
2018-06-19T20:08:29.156Z,20.95
2018-06-19T20:10:58.816Z,20.98
2018-06-19T20:13:28.540Z,20.89
2018-06-19T20:15:58.188Z,20.76
2018-06-19T20:18:27.868Z,20.64
2018-06-19T20:20:57.563Z,20.62
2018-06-19T20:23:27.227Z,20.55
2018-06-19T20:25:56.893Z,20.52
2018-06-19T20:28:26.606Z,20.50
2018-06-19T20:30:56.270Z,20.39
2018-06-19T20:33:25.900Z,20.23
2018-06-19T20:35:55.591Z,20.26
2018-06-19T20:38:25.240Z,20.22
2018-06-19T20:40:54.911Z,20.17
2018-06-19T20:43:24.631Z,20.12
2018-06-19T20:45:54.287Z,20.16
2018-06-19T20:48:23.951Z,20.18
2018-06-19T20:50:53.849Z,20.18
2018-06-19T20:53:23.559Z,20.14
2018-06-19T20:55:53.232Z,20.16
2018-06-19T20:58:22.883Z,20.06
2018-06-19T21:00:52.552Z,20.06
2018-06-19T21:03:22.240Z,19.97
2018-06-19T21:05:51.889Z,19.97
2018-06-19T21:08:25.168Z,20.02
2018-06-19T21:10:54.812Z,19.99
2018-06-19T21:13:24.476Z,19.90
2018-06-19T21:15:54.175Z,19.81
2018-06-19T21:18:23.815Z,19.84
2018-06-19T21:20:53.437Z,19.83
2018-06-19T21:23:23.124Z,19.79
2018-06-19T21:25:52.784Z,19.79
2018-06-19T21:28:22.465Z,19.92
2018-06-19T21:30:52.111Z,19.77
2018-06-19T21:33:21.771Z,19.74
2018-06-19T21:35:51.463Z,19.73
2018-06-19T21:38:21.091Z,19.81
2018-06-19T21:40:50.812Z,19.86
2018-06-19T21:43:20.524Z,19.87
2018-06-19T21:45:50.608Z,19.84
2018-06-19T21:48:20.311Z,19.84
2018-06-19T21:50:49.983Z,19.83
2018-06-19T21:53:19.651Z,19.79
2018-06-19T21:55:49.331Z,19.79
2018-06-19T21:58:19.172Z,19.76
2018-06-19T22:00:48.863Z,19.74
2018-06-19T22:03:18.567Z,19.72
2018-06-19T22:05:48.206Z,19.70
2018-06-19T22:08:17.853Z,19.71
2018-06-19T22:10:47.536Z,19.72
2018-06-19T22:13:17.183Z,19.71
2018-06-19T22:15:46.866Z,19.72
2018-06-19T22:18:16.563Z,19.66
2018-06-19T22:20:46.211Z,19.63
2018-06-19T22:23:15.880Z,19.67
2018-06-19T22:25:45.600Z,19.58
2018-06-19T22:28:15.244Z,19.65
2018-06-19T22:30:44.887Z,19.61
2018-06-19T22:33:14.675Z,19.55
2018-06-19T22:35:44.329Z,19.57
2018-06-19T22:38:13.967Z,19.53
2018-06-19T22:40:43.659Z,19.47
2018-06-19T22:43:13.297Z,19.44
2018-06-19T22:45:43.012Z,19.43
2018-06-19T22:48:12.852Z,19.42
2018-06-19T22:50:42.648Z,19.38
2018-06-19T22:53:12.420Z,19.37
2018-06-19T22:55:42.096Z,19.33
2018-06-19T22:58:11.808Z,19.33
2018-06-19T23:00:41.591Z,19.31
2018-06-19T23:03:11.336Z,19.28
2018-06-19T23:05:41.117Z,19.31
2018-06-19T23:08:10.829Z,19.25
2018-06-19T23:10:40.556Z,19.24
2018-06-19T23:13:10.335Z,19.19
2018-06-19T23:15:40.027Z,19.16
2018-06-19T23:18:09.785Z,19.11
2018-06-19T23:20:39.584Z,19.04
2018-06-19T23:23:09.249Z,19.04
2018-06-19T23:25:38.911Z,19.03
2018-06-19T23:28:08.656Z,19.01
2018-06-19T23:30:38.316Z,19.03
2018-06-19T23:33:07.976Z,19.01
2018-06-19T23:35:37.664Z,19.20
2018-06-19T23:38:07.395Z,19.22
2018-06-19T23:40:37.092Z,19.16
2018-06-19T23:43:06.765Z,19.11
2018-06-19T23:45:36.412Z,19.16
2018-06-19T23:48:06.116Z,19.12
2018-06-19T23:50:35.769Z,19.08
2018-06-19T23:53:05.418Z,19.05
2018-06-19T23:55:35.112Z,18.99
2018-06-19T23:58:04.841Z,19.00
